sensor_id;sensor_type;location;lat;lon;timestamp;temperature;humidity
57390;DHT22;43217;52.694;6.214;2022-09-09T00:02:23;14.90;99.90
57390;DHT22;43217;52.694;6.214;2022-09-09T00:05:04;15.00;99.90
57390;DHT22;43217;52.694;6.214;2022-09-09T00:07:47;15.00;99.90
57390;DHT22;43217;52.694;6.214;2022-09-09T00:10:34;15.00;99.90
57390;DHT22;43217;52.694;6.214;2022-09-09T00:13:34;15.00;99.90
57390;DHT22;43217;52.694;6.214;2022-09-09T00:16:20;15.00;99.90
57390;DHT22;43217;52.694;6.214;2022-09-09T00:21:36;15.00;99.90
57390;DHT22;43217;52.694;6.214;2022-09-09T00:24:43;15.10;99.90
57390;DHT22;43217;52.694;6.214;2022-09-09T00:30:20;15.10;99.90
57390;DHT22;43217;52.694;6.214;2022-09-09T00:32:59;15.20;99.90
57390;DHT22;43217;52.694;6.214;2022-09-09T00:37:54;15.10;99.90
57390;DHT22;43217;52.694;6.214;2022-09-09T00:40:37;15.10;99.90
57390;DHT22;43217;52.694;6.214;2022-09-09T00:43:24;15.10;99.90
57390;DHT22;43217;52.694;6.214;2022-09-09T00:51:39;15.10;99.90
57390;DHT22;43217;52.694;6.214;2022-09-09T00:57:27;15.10;99.90
57390;DHT22;43217;52.694;6.214;2022-09-09T01:00:24;15.10;99.90
57390;DHT22;43217;52.694;6.214;2022-09-09T01:05:58;15.00;99.90
57390;DHT22;43217;52.694;6.214;2022-09-09T01:11:01;15.00;99.90
57390;DHT22;43217;52.694;6.214;2022-09-09T01:13:36;15.00;99.90
57390;DHT22;43217;52.694;6.214;2022-09-09T01:16:08;15.00;99.90
57390;DHT22;43217;52.694;6.214;2022-09-09T01:18:44;14.90;99.90
57390;DHT22;43217;52.694;6.214;2022-09-09T01:21:24;15.00;99.90
57390;DHT22;43217;52.694;6.214;2022-09-09T01:26:41;14.90;99.90
57390;DHT22;43217;52.694;6.214;2022-09-09T01:29:13;15.00;99.90
57390;DHT22;43217;52.694;6.214;2022-09-09T01:32:37;15.00;99.90
57390;DHT22;43217;52.694;6.214;2022-09-09T01:34:32;15.00;99.90
57390;DHT22;43217;52.694;6.214;2022-09-09T01:37:07;15.00;99.90
57390;DHT22;43217;52.694;6.214;2022-09-09T01:39:35;14.90;99.90
57390;DHT22;43217;52.694;6.214;2022-09-09T01:42:03;14.90;99.90
57390;DHT22;43217;52.694;6.214;2022-09-09T01:44:30;14.90;99.90
57390;DHT22;43217;52.694;6.214;2022-09-09T01:46:56;14.90;99.90
57390;DHT22;43217;52.694;6.214;2022-09-09T01:49:22;14.90;99.90
57390;DHT22;43217;52.694;6.214;2022-09-09T01:51:51;14.90;99.90
57390;DHT22;43217;52.694;6.214;2022-09-09T01:54:19;14.90;99.90
57390;DHT22;43217;52.694;6.214;2022-09-09T01:59:57;14.90;99.90
57390;DHT22;43217;52.694;6.214;2022-09-09T02:05:25;14.90;99.90
57390;DHT22;43217;52.694;6.214;2022-09-09T02:08:05;14.90;99.90
57390;DHT22;43217;52.694;6.214;2022-09-09T02:10:58;15.00;99.90
57390;DHT22;43217;52.694;6.214;2022-09-09T02:13:25;15.00;99.90
57390;DHT22;43217;52.694;6.214;2022-09-09T02:19:06;15.00;99.90
57390;DHT22;43217;52.694;6.214;2022-09-09T02:21:36;15.00;99.90
57390;DHT22;43217;52.694;6.214;2022-09-09T02:24:05;15.00;99.90
57390;DHT22;43217;52.694;6.214;2022-09-09T02:26:34;15.00;99.90
57390;DHT22;43217;52.694;6.214;2022-09-09T02:29:03;15.00;99.90
57390;DHT22;43217;52.694;6.214;2022-09-09T02:31:32;15.00;99.90
57390;DHT22;43217;52.694;6.214;2022-09-09T02:34:05;15.00;99.90
57390;DHT22;43217;52.694;6.214;2022-09-09T02:36:33;15.00;99.90
57390;DHT22;43217;52.694;6.214;2022-09-09T02:39:00;15.00;99.90
57390;DHT22;43217;52.694;6.214;2022-09-09T02:41:34;15.00;99.90
57390;DHT22;43217;52.694;6.214;2022-09-09T02:44:00;15.00;99.90
57390;DHT22;43217;52.694;6.214;2022-09-09T02:46:36;14.90;99.90
57390;DHT22;43217;52.694;6.214;2022-09-09T02:49:11;14.90;99.90
57390;DHT22;43217;52.694;6.214;2022-09-09T02:52:13;14.90;99.90
57390;DHT22;43217;52.694;6.214;2022-09-09T02:54:42;14.90;99.90
57390;DHT22;43217;52.694;6.214;2022-09-09T02:57:28;14.90;99.90
57390;DHT22;43217;52.694;6.214;2022-09-09T02:59:57;14.90;99.90
57390;DHT22;43217;52.694;6.214;2022-09-09T03:02:24;14.90;99.90
57390;DHT22;43217;52.694;6.214;2022-09-09T03:04:58;14.90;99.90
57390;DHT22;43217;52.694;6.214;2022-09-09T03:07:24;14.90;99.90
57390;DHT22;43217;52.694;6.214;2022-09-09T03:09:54;14.90;99.90
57390;DHT22;43217;52.694;6.214;2022-09-09T03:12:20;14.90;99.90
57390;DHT22;43217;52.694;6.214;2022-09-09T03:15:05;14.90;99.90
57390;DHT22;43217;52.694;6.214;2022-09-09T03:17:31;14.90;99.90
57390;DHT22;43217;52.694;6.214;2022-09-09T03:23:14;14.90;99.90
57390;DHT22;43217;52.694;6.214;2022-09-09T03:25:51;14.90;99.90
57390;DHT22;43217;52.694;6.214;2022-09-09T03:28:17;14.90;99.90
57390;DHT22;43217;52.694;6.214;2022-09-09T03:30:43;14.80;99.90
57390;DHT22;43217;52.694;6.214;2022-09-09T03:33:09;14.80;99.90
57390;DHT22;43217;52.694;6.214;2022-09-09T03:35:35;14.80;99.90
57390;DHT22;43217;52.694;6.214;2022-09-09T03:38:01;14.80;99.90
57390;DHT22;43217;52.694;6.214;2022-09-09T03:40:27;14.80;99.90
57390;DHT22;43217;52.694;6.214;2022-09-09T03:42:52;14.80;99.90
57390;DHT22;43217;52.694;6.214;2022-09-09T03:45:18;14.70;99.90
57390;DHT22;43217;52.694;6.214;2022-09-09T03:47:44;14.70;99.90
57390;DHT22;43217;52.694;6.214;2022-09-09T03:50:09;14.70;99.90
57390;DHT22;43217;52.694;6.214;2022-09-09T03:52:40;14.70;99.90
57390;DHT22;43217;52.694;6.214;2022-09-09T03:55:07;14.60;99.90
57390;DHT22;43217;52.694;6.214;2022-09-09T03:57:33;14.60;99.90
57390;DHT22;43217;52.694;6.214;2022-09-09T04:00:04;14.60;99.90
57390;DHT22;43217;52.694;6.214;2022-09-09T04:02:31;14.50;99.90
57390;DHT22;43217;52.694;6.214;2022-09-09T04:04:56;14.50;99.90
57390;DHT22;43217;52.694;6.214;2022-09-09T04:07:22;14.50;99.90
57390;DHT22;43217;52.694;6.214;2022-09-09T04:09:47;14.50;99.90
57390;DHT22;43217;52.694;6.214;2022-09-09T04:12:13;14.50;99.90
57390;DHT22;43217;52.694;6.214;2022-09-09T04:14:39;14.50;99.90
57390;DHT22;43217;52.694;6.214;2022-09-09T04:17:05;14.40;99.90
57390;DHT22;43217;52.694;6.214;2022-09-09T04:19:32;14.50;99.90
57390;DHT22;43217;52.694;6.214;2022-09-09T04:21:58;14.40;99.90
57390;DHT22;43217;52.694;6.214;2022-09-09T04:24:23;14.40;99.90
57390;DHT22;43217;52.694;6.214;2022-09-09T04:26:49;14.40;99.90
57390;DHT22;43217;52.694;6.214;2022-09-09T04:29:15;14.40;99.90
57390;DHT22;43217;52.694;6.214;2022-09-09T04:31:41;14.40;99.90
57390;DHT22;43217;52.694;6.214;2022-09-09T04:34:08;14.30;99.90
57390;DHT22;43217;52.694;6.214;2022-09-09T04:36:34;14.30;99.90
57390;DHT22;43217;52.694;6.214;2022-09-09T04:39:00;14.30;99.90
57390;DHT22;43217;52.694;6.214;2022-09-09T04:41:27;14.30;99.90
57390;DHT22;43217;52.694;6.214;2022-09-09T04:43:53;14.30;99.90
57390;DHT22;43217;52.694;6.214;2022-09-09T04:46:20;14.30;99.90
57390;DHT22;43217;52.694;6.214;2022-09-09T04:48:45;14.30;99.90
57390;DHT22;43217;52.694;6.214;2022-09-09T04:51:13;14.30;99.90
57390;DHT22;43217;52.694;6.214;2022-09-09T04:53:39;14.20;99.90
57390;DHT22;43217;52.694;6.214;2022-09-09T04:56:16;14.30;99.90
57390;DHT22;43217;52.694;6.214;2022-09-09T04:58:42;14.30;99.90
57390;DHT22;43217;52.694;6.214;2022-09-09T05:01:18;14.20;99.90
57390;DHT22;43217;52.694;6.214;2022-09-09T05:03:44;14.30;99.90
57390;DHT22;43217;52.694;6.214;2022-09-09T05:06:19;14.30;99.90
57390;DHT22;43217;52.694;6.214;2022-09-09T05:08:45;14.20;99.90
57390;DHT22;43217;52.694;6.214;2022-09-09T05:11:23;14.20;99.90
57390;DHT22;43217;52.694;6.214;2022-09-09T05:13:50;14.20;99.90
57390;DHT22;43217;52.694;6.214;2022-09-09T05:16:16;14.20;99.90
57390;DHT22;43217;52.694;6.214;2022-09-09T05:19:04;14.20;99.90
57390;DHT22;43217;52.694;6.214;2022-09-09T05:21:29;14.20;99.90
57390;DHT22;43217;52.694;6.214;2022-09-09T05:23:56;14.20;99.90
57390;DHT22;43217;52.694;6.214;2022-09-09T05:26:23;14.20;99.90
57390;DHT22;43217;52.694;6.214;2022-09-09T05:28:49;14.20;99.90
57390;DHT22;43217;52.694;6.214;2022-09-09T05:31:16;14.20;99.90
57390;DHT22;43217;52.694;6.214;2022-09-09T05:33:43;14.20;99.90
57390;DHT22;43217;52.694;6.214;2022-09-09T05:36:13;14.20;99.90
57390;DHT22;43217;52.694;6.214;2022-09-09T05:38:39;14.20;99.90
57390;DHT22;43217;52.694;6.214;2022-09-09T05:41:06;14.20;99.90
57390;DHT22;43217;52.694;6.214;2022-09-09T05:43:32;14.20;99.90
57390;DHT22;43217;52.694;6.214;2022-09-09T05:46:09;14.20;99.90
57390;DHT22;43217;52.694;6.214;2022-09-09T05:48:40;14.20;99.90
57390;DHT22;43217;52.694;6.214;2022-09-09T05:51:09;14.10;99.90
57390;DHT22;43217;52.694;6.214;2022-09-09T05:53:36;14.20;99.90
57390;DHT22;43217;52.694;6.214;2022-09-09T05:56:07;14.20;99.90
57390;DHT22;43217;52.694;6.214;2022-09-09T05:58:35;14.20;99.90
57390;DHT22;43217;52.694;6.214;2022-09-09T06:01:22;14.20;99.90
57390;DHT22;43217;52.694;6.214;2022-09-09T06:03:49;14.30;99.90
57390;DHT22;43217;52.694;6.214;2022-09-09T06:06:19;14.30;99.90
57390;DHT22;43217;52.694;6.214;2022-09-09T06:08:54;14.30;99.90
57390;DHT22;43217;52.694;6.214;2022-09-09T06:11:28;14.40;99.90
57390;DHT22;43217;52.694;6.214;2022-09-09T06:13:56;14.40;99.90
57390;DHT22;43217;52.694;6.214;2022-09-09T06:16:24;14.40;99.90
57390;DHT22;43217;52.694;6.214;2022-09-09T06:18:50;14.40;99.90
57390;DHT22;43217;52.694;6.214;2022-09-09T06:21:21;14.50;99.90
57390;DHT22;43217;52.694;6.214;2022-09-09T06:23:48;14.50;99.90
57390;DHT22;43217;52.694;6.214;2022-09-09T06:26:17;14.60;99.90
57390;DHT22;43217;52.694;6.214;2022-09-09T06:28:47;14.70;99.90
57390;DHT22;43217;52.694;6.214;2022-09-09T06:31:15;14.80;99.90
57390;DHT22;43217;52.694;6.214;2022-09-09T06:33:52;14.90;99.90
57390;DHT22;43217;52.694;6.214;2022-09-09T06:36:20;15.20;99.90
57390;DHT22;43217;52.694;6.214;2022-09-09T06:38:46;15.60;99.90
57390;DHT22;43217;52.694;6.214;2022-09-09T06:41:13;15.90;99.90
57390;DHT22;43217;52.694;6.214;2022-09-09T06:43:39;16.10;99.90
57390;DHT22;43217;52.694;6.214;2022-09-09T06:46:09;16.30;99.90
57390;DHT22;43217;52.694;6.214;2022-09-09T06:48:36;16.10;99.90
57390;DHT22;43217;52.694;6.214;2022-09-09T06:51:08;16.30;99.90
57390;DHT22;43217;52.694;6.214;2022-09-09T06:53:35;16.50;99.90
57390;DHT22;43217;52.694;6.214;2022-09-09T06:58:49;16.40;99.90
57390;DHT22;43217;52.694;6.214;2022-09-09T07:01:18;16.50;99.90
57390;DHT22;43217;52.694;6.214;2022-09-09T07:03:49;17.30;99.90
57390;DHT22;43217;52.694;6.214;2022-09-09T07:06:21;18.00;99.90
57390;DHT22;43217;52.694;6.214;2022-09-09T07:08:51;18.70;99.90
57390;DHT22;43217;52.694;6.214;2022-09-09T07:11:19;18.70;99.90
57390;DHT22;43217;52.694;6.214;2022-09-09T07:13:44;18.60;99.90
57390;DHT22;43217;52.694;6.214;2022-09-09T07:16:13;18.30;99.90
57390;DHT22;43217;52.694;6.214;2022-09-09T07:18:40;18.00;99.90
57390;DHT22;43217;52.694;6.214;2022-09-09T07:21:06;17.90;99.90
57390;DHT22;43217;52.694;6.214;2022-09-09T07:23:32;17.70;99.90
57390;DHT22;43217;52.694;6.214;2022-09-09T07:25:58;17.50;99.90
57390;DHT22;43217;52.694;6.214;2022-09-09T07:28:25;18.00;99.90
57390;DHT22;43217;52.694;6.214;2022-09-09T07:30:59;18.20;99.90
57390;DHT22;43217;52.694;6.214;2022-09-09T07:33:25;18.30;99.90
57390;DHT22;43217;52.694;6.214;2022-09-09T07:35:51;18.20;99.90
57390;DHT22;43217;52.694;6.214;2022-09-09T07:38:18;18.40;99.90
57390;DHT22;43217;52.694;6.214;2022-09-09T07:40:44;18.50;99.90
57390;DHT22;43217;52.694;6.214;2022-09-09T07:43:10;18.40;99.90
57390;DHT22;43217;52.694;6.214;2022-09-09T07:45:37;18.20;99.90
57390;DHT22;43217;52.694;6.214;2022-09-09T07:48:03;17.80;99.90
57390;DHT22;43217;52.694;6.214;2022-09-09T07:50:34;17.60;99.90
57390;DHT22;43217;52.694;6.214;2022-09-09T07:53:00;17.50;99.90
57390;DHT22;43217;52.694;6.214;2022-09-09T07:55:27;17.40;99.90
57390;DHT22;43217;52.694;6.214;2022-09-09T07:57:53;17.90;99.90
57390;DHT22;43217;52.694;6.214;2022-09-09T08:00:20;18.50;99.90
57390;DHT22;43217;52.694;6.214;2022-09-09T08:02:47;19.40;99.90
57390;DHT22;43217;52.694;6.214;2022-09-09T08:05:13;20.10;99.90
57390;DHT22;43217;52.694;6.214;2022-09-09T08:07:40;20.80;99.90
57390;DHT22;43217;52.694;6.214;2022-09-09T08:10:06;21.30;99.90
57390;DHT22;43217;52.694;6.214;2022-09-09T08:12:32;20.90;99.90
57390;DHT22;43217;52.694;6.214;2022-09-09T08:14:59;20.60;99.90
57390;DHT22;43217;52.694;6.214;2022-09-09T08:17:24;20.70;99.90
57390;DHT22;43217;52.694;6.214;2022-09-09T08:19:50;20.40;99.90
57390;DHT22;43217;52.694;6.214;2022-09-09T08:22:16;20.20;99.90
57390;DHT22;43217;52.694;6.214;2022-09-09T08:24:41;20.20;99.90
57390;DHT22;43217;52.694;6.214;2022-09-09T08:27:10;20.30;99.90
57390;DHT22;43217;52.694;6.214;2022-09-09T08:29:36;19.80;99.90
57390;DHT22;43217;52.694;6.214;2022-09-09T08:32:03;19.50;99.90
57390;DHT22;43217;52.694;6.214;2022-09-09T08:34:30;19.30;99.90
57390;DHT22;43217;52.694;6.214;2022-09-09T08:36:56;19.60;99.90
57390;DHT22;43217;52.694;6.214;2022-09-09T08:39:22;20.10;99.90
57390;DHT22;43217;52.694;6.214;2022-09-09T08:42:08;20.50;99.90
57390;DHT22;43217;52.694;6.214;2022-09-09T08:45:09;20.80;99.90
57390;DHT22;43217;52.694;6.214;2022-09-09T08:48:17;20.70;99.90
57390;DHT22;43217;52.694;6.214;2022-09-09T08:50:45;20.00;99.90
57390;DHT22;43217;52.694;6.214;2022-09-09T08:53:21;19.60;99.90
57390;DHT22;43217;52.694;6.214;2022-09-09T08:55:56;19.40;99.90
57390;DHT22;43217;52.694;6.214;2022-09-09T08:58:29;19.10;99.90
57390;DHT22;43217;52.694;6.214;2022-09-09T09:09:14;18.40;99.90
57390;DHT22;43217;52.694;6.214;2022-09-09T09:11:58;18.40;99.90
57390;DHT22;43217;52.694;6.214;2022-09-09T09:14:28;18.40;99.90
57390;DHT22;43217;52.694;6.214;2022-09-09T09:17:05;18.60;99.90
57390;DHT22;43217;52.694;6.214;2022-09-09T09:19:33;18.60;99.90
57390;DHT22;43217;52.694;6.214;2022-09-09T09:25:10;18.60;99.90
57390;DHT22;43217;52.694;6.214;2022-09-09T09:27:45;18.50;99.90
57390;DHT22;43217;52.694;6.214;2022-09-09T09:30:25;18.50;99.90
57390;DHT22;43217;52.694;6.214;2022-09-09T09:32:55;18.40;99.90
57390;DHT22;43217;52.694;6.214;2022-09-09T09:35:25;18.40;99.90
57390;DHT22;43217;52.694;6.214;2022-09-09T09:37:51;18.40;99.90
57390;DHT22;43217;52.694;6.214;2022-09-09T09:40:20;18.50;99.90
57390;DHT22;43217;52.694;6.214;2022-09-09T09:42:59;18.70;99.90
57390;DHT22;43217;52.694;6.214;2022-09-09T09:45:33;18.80;99.90
57390;DHT22;43217;52.694;6.214;2022-09-09T09:48:05;18.70;99.90
57390;DHT22;43217;52.694;6.214;2022-09-09T09:50:32;18.60;99.90
57390;DHT22;43217;52.694;6.214;2022-09-09T09:53:01;18.70;99.90
57390;DHT22;43217;52.694;6.214;2022-09-09T09:55:29;18.60;99.90
57390;DHT22;43217;52.694;6.214;2022-09-09T09:58:04;18.70;99.90
57390;DHT22;43217;52.694;6.214;2022-09-09T10:00:51;18.70;99.90
57390;DHT22;43217;52.694;6.214;2022-09-09T10:03:29;18.60;99.90
57390;DHT22;43217;52.694;6.214;2022-09-09T10:05:57;18.60;99.90
57390;DHT22;43217;52.694;6.214;2022-09-09T10:08:25;18.60;99.90
57390;DHT22;43217;52.694;6.214;2022-09-09T10:14:17;18.60;99.90
57390;DHT22;43217;52.694;6.214;2022-09-09T10:16:46;18.50;99.90
57390;DHT22;43217;52.694;6.214;2022-09-09T10:19:35;18.40;99.90
57390;DHT22;43217;52.694;6.214;2022-09-09T10:24:39;18.40;99.90
57390;DHT22;43217;52.694;6.214;2022-09-09T10:30:14;18.40;99.90
57390;DHT22;43217;52.694;6.214;2022-09-09T10:32:48;18.40;99.90
57390;DHT22;43217;52.694;6.214;2022-09-09T10:35:37;18.40;99.90
57390;DHT22;43217;52.694;6.214;2022-09-09T10:52:14;18.40;99.90
57390;DHT22;43217;52.694;6.214;2022-09-09T10:55:01;18.40;99.90
57390;DHT22;43217;52.694;6.214;2022-09-09T10:57:50;18.40;99.90
57390;DHT22;43217;52.694;6.214;2022-09-09T11:00:25;18.40;99.90
57390;DHT22;43217;52.694;6.214;2022-09-09T11:03:01;18.30;99.90
57390;DHT22;43217;52.694;6.214;2022-09-09T11:05:46;18.30;99.90
57390;DHT22;43217;52.694;6.214;2022-09-09T11:08:25;18.30;99.90
57390;DHT22;43217;52.694;6.214;2022-09-09T11:10:53;18.30;99.90
57390;DHT22;43217;52.694;6.214;2022-09-09T11:21:48;19.00;99.90
57390;DHT22;43217;52.694;6.214;2022-09-09T11:24:31;19.10;99.90
57390;DHT22;43217;52.694;6.214;2022-09-09T11:27:31;19.20;99.90
57390;DHT22;43217;52.694;6.214;2022-09-09T11:30:20;19.20;99.90
57390;DHT22;43217;52.694;6.214;2022-09-09T11:41:09;19.60;99.90
57390;DHT22;43217;52.694;6.214;2022-09-09T11:43:52;19.60;99.90
57390;DHT22;43217;52.694;6.214;2022-09-09T11:46:20;19.50;99.90
57390;DHT22;43217;52.694;6.214;2022-09-09T11:49:21;19.60;99.90
57390;DHT22;43217;52.694;6.214;2022-09-09T11:51:50;19.70;99.90
57390;DHT22;43217;52.694;6.214;2022-09-09T11:54:32;19.60;99.90
57390;DHT22;43217;52.694;6.214;2022-09-09T11:56:58;19.60;99.90
57390;DHT22;43217;52.694;6.214;2022-09-09T12:07:30;19.30;99.90
57390;DHT22;43217;52.694;6.214;2022-09-09T12:12:28;19.20;99.90
57390;DHT22;43217;52.694;6.214;2022-09-09T12:15:24;19.30;99.90
57390;DHT22;43217;52.694;6.214;2022-09-09T12:17:55;19.40;99.90
57390;DHT22;43217;52.694;6.214;2022-09-09T12:20:34;19.50;99.90
57390;DHT22;43217;52.694;6.214;2022-09-09T12:23:18;19.50;99.90
57390;DHT22;43217;52.694;6.214;2022-09-09T12:26:01;19.40;99.90
57390;DHT22;43217;52.694;6.214;2022-09-09T12:33:44;19.60;99.90
57390;DHT22;43217;52.694;6.214;2022-09-09T12:36:25;19.70;99.90
57390;DHT22;43217;52.694;6.214;2022-09-09T12:38:53;19.70;99.90
57390;DHT22;43217;52.694;6.214;2022-09-09T12:41:25;19.60;99.90
57390;DHT22;43217;52.694;6.214;2022-09-09T12:44:06;19.60;99.90
57390;DHT22;43217;52.694;6.214;2022-09-09T12:46:34;19.60;99.90
57390;DHT22;43217;52.694;6.214;2022-09-09T12:49:02;19.50;99.90
57390;DHT22;43217;52.694;6.214;2022-09-09T12:51:30;19.30;99.90
57390;DHT22;43217;52.694;6.214;2022-09-09T12:53:58;19.30;99.90
57390;DHT22;43217;52.694;6.214;2022-09-09T12:56:27;19.20;99.90
57390;DHT22;43217;52.694;6.214;2022-09-09T12:58:57;19.10;99.90
57390;DHT22;43217;52.694;6.214;2022-09-09T13:01:31;19.00;99.90
57390;DHT22;43217;52.694;6.214;2022-09-09T13:03:58;18.90;99.90
57390;DHT22;43217;52.694;6.214;2022-09-09T13:06:26;18.80;99.90
57390;DHT22;43217;52.694;6.214;2022-09-09T13:08:53;18.90;99.90
57390;DHT22;43217;52.694;6.214;2022-09-09T13:11:38;18.90;99.90
57390;DHT22;43217;52.694;6.214;2022-09-09T13:14:05;18.60;99.90
57390;DHT22;43217;52.694;6.214;2022-09-09T13:16:33;18.40;99.90
57390;DHT22;43217;52.694;6.214;2022-09-09T13:19:01;18.20;99.90
57390;DHT22;43217;52.694;6.214;2022-09-09T13:21:40;18.30;99.90
57390;DHT22;43217;52.694;6.214;2022-09-09T13:24:31;18.40;99.90
57390;DHT22;43217;52.694;6.214;2022-09-09T13:27:02;18.50;99.90
57390;DHT22;43217;52.694;6.214;2022-09-09T13:29:28;18.60;99.90
57390;DHT22;43217;52.694;6.214;2022-09-09T13:32:07;18.80;99.90
57390;DHT22;43217;52.694;6.214;2022-09-09T13:34:38;18.90;99.90
57390;DHT22;43217;52.694;6.214;2022-09-09T13:37:05;18.90;99.90
57390;DHT22;43217;52.694;6.214;2022-09-09T13:39:34;18.90;99.90
57390;DHT22;43217;52.694;6.214;2022-09-09T13:42:02;18.80;99.90
57390;DHT22;43217;52.694;6.214;2022-09-09T13:44:39;18.80;99.90
57390;DHT22;43217;52.694;6.214;2022-09-09T13:47:18;18.80;99.90
57390;DHT22;43217;52.694;6.214;2022-09-09T13:49:45;18.90;99.90
57390;DHT22;43217;52.694;6.214;2022-09-09T13:52:13;19.00;99.90
57390;DHT22;43217;52.694;6.214;2022-09-09T13:54:40;19.10;99.90
57390;DHT22;43217;52.694;6.214;2022-09-09T13:57:17;19.20;99.90
57390;DHT22;43217;52.694;6.214;2022-09-09T13:59:46;19.20;99.90
57390;DHT22;43217;52.694;6.214;2022-09-09T14:02:13;19.10;99.90
57390;DHT22;43217;52.694;6.214;2022-09-09T14:04:39;19.00;99.90
57390;DHT22;43217;52.694;6.214;2022-09-09T14:07:12;19.10;99.90
57390;DHT22;43217;52.694;6.214;2022-09-09T14:09:39;19.10;99.90
57390;DHT22;43217;52.694;6.214;2022-09-09T14:12:05;19.20;99.90
57390;DHT22;43217;52.694;6.214;2022-09-09T14:14:31;19.20;99.90
57390;DHT22;43217;52.694;6.214;2022-09-09T14:16:56;19.30;99.90
57390;DHT22;43217;52.694;6.214;2022-09-09T14:19:22;19.30;99.90
57390;DHT22;43217;52.694;6.214;2022-09-09T14:21:48;19.20;99.90
57390;DHT22;43217;52.694;6.214;2022-09-09T14:24:14;19.10;99.90
57390;DHT22;43217;52.694;6.214;2022-09-09T14:26:39;19.00;99.90
57390;DHT22;43217;52.694;6.214;2022-09-09T14:29:06;19.00;99.90
57390;DHT22;43217;52.694;6.214;2022-09-09T14:31:31;18.90;99.90
57390;DHT22;43217;52.694;6.214;2022-09-09T14:33:57;18.90;99.90
57390;DHT22;43217;52.694;6.214;2022-09-09T14:36:24;18.90;99.90
57390;DHT22;43217;52.694;6.214;2022-09-09T14:38:49;19.00;99.90
57390;DHT22;43217;52.694;6.214;2022-09-09T14:41:18;19.00;99.90
57390;DHT22;43217;52.694;6.214;2022-09-09T14:43:45;19.10;99.90
57390;DHT22;43217;52.694;6.214;2022-09-09T14:46:13;19.00;99.90
57390;DHT22;43217;52.694;6.214;2022-09-09T14:48:39;19.00;99.90
57390;DHT22;43217;52.694;6.214;2022-09-09T14:51:17;19.10;99.90
57390;DHT22;43217;52.694;6.214;2022-09-09T14:53:45;19.00;99.90
57390;DHT22;43217;52.694;6.214;2022-09-09T14:56:16;19.00;99.90
57390;DHT22;43217;52.694;6.214;2022-09-09T14:58:43;19.00;99.90
57390;DHT22;43217;52.694;6.214;2022-09-09T15:01:14;19.00;99.90
57390;DHT22;43217;52.694;6.214;2022-09-09T15:03:48;19.00;99.90
57390;DHT22;43217;52.694;6.214;2022-09-09T15:06:14;18.90;99.90
57390;DHT22;43217;52.694;6.214;2022-09-09T15:08:42;19.00;99.90
57390;DHT22;43217;52.694;6.214;2022-09-09T15:11:08;18.90;99.90
57390;DHT22;43217;52.694;6.214;2022-09-09T15:13:34;19.00;99.90
57390;DHT22;43217;52.694;6.214;2022-09-09T15:16:14;18.90;99.90
57390;DHT22;43217;52.694;6.214;2022-09-09T15:18:40;19.00;99.90
57390;DHT22;43217;52.694;6.214;2022-09-09T15:21:19;19.00;99.90
57390;DHT22;43217;52.694;6.214;2022-09-09T15:23:46;19.00;99.90
57390;DHT22;43217;52.694;6.214;2022-09-09T15:26:13;19.00;99.90
57390;DHT22;43217;52.694;6.214;2022-09-09T15:28:39;18.90;99.90
57390;DHT22;43217;52.694;6.214;2022-09-09T15:31:09;18.90;99.90
57390;DHT22;43217;52.694;6.214;2022-09-09T15:33:34;18.90;99.90
57390;DHT22;43217;52.694;6.214;2022-09-09T15:36:13;18.90;99.90
57390;DHT22;43217;52.694;6.214;2022-09-09T15:38:39;19.00;99.90
57390;DHT22;43217;52.694;6.214;2022-09-09T15:41:04;19.10;99.90
57390;DHT22;43217;52.694;6.214;2022-09-09T15:43:30;19.00;99.90
57390;DHT22;43217;52.694;6.214;2022-09-09T15:46:20;19.00;99.90
57390;DHT22;43217;52.694;6.214;2022-09-09T15:48:50;18.80;99.90
57390;DHT22;43217;52.694;6.214;2022-09-09T15:51:16;18.70;99.90
57390;DHT22;43217;52.694;6.214;2022-09-09T15:53:42;18.80;99.90
57390;DHT22;43217;52.694;6.214;2022-09-09T15:56:09;18.70;99.90
57390;DHT22;43217;52.694;6.214;2022-09-09T15:58:35;18.70;99.90
57390;DHT22;43217;52.694;6.214;2022-09-09T16:01:05;18.60;99.90
57390;DHT22;43217;52.694;6.214;2022-09-09T16:03:36;18.50;99.90
57390;DHT22;43217;52.694;6.214;2022-09-09T16:06:04;18.40;99.90
57390;DHT22;43217;52.694;6.214;2022-09-09T16:08:34;18.50;99.90
57390;DHT22;43217;52.694;6.214;2022-09-09T16:11:14;18.40;99.90
57390;DHT22;43217;52.694;6.214;2022-09-09T16:13:41;18.40;99.90
57390;DHT22;43217;52.694;6.214;2022-09-09T16:16:12;18.40;99.90
57390;DHT22;43217;52.694;6.214;2022-09-09T16:18:51;18.50;99.90
57390;DHT22;43217;52.694;6.214;2022-09-09T16:21:23;18.40;99.90
57390;DHT22;43217;52.694;6.214;2022-09-09T16:23:52;18.40;99.90
57390;DHT22;43217;52.694;6.214;2022-09-09T16:26:22;18.40;99.90
57390;DHT22;43217;52.694;6.214;2022-09-09T16:28:49;18.40;99.90
57390;DHT22;43217;52.694;6.214;2022-09-09T16:31:19;18.40;99.90
57390;DHT22;43217;52.694;6.214;2022-09-09T16:33:45;18.30;99.90
57390;DHT22;43217;52.694;6.214;2022-09-09T16:36:28;18.30;99.90
57390;DHT22;43217;52.694;6.214;2022-09-09T16:39:00;18.40;99.90
57390;DHT22;43217;52.694;6.214;2022-09-09T16:41:27;18.40;99.90
57390;DHT22;43217;52.694;6.214;2022-09-09T16:43:54;18.40;99.90
57390;DHT22;43217;52.694;6.214;2022-09-09T16:46:21;18.30;99.90
57390;DHT22;43217;52.694;6.214;2022-09-09T16:48:48;18.30;99.90
57390;DHT22;43217;52.694;6.214;2022-09-09T16:51:20;18.30;99.90
57390;DHT22;43217;52.694;6.214;2022-09-09T16:53:46;18.30;99.90
57390;DHT22;43217;52.694;6.214;2022-09-09T16:56:14;18.30;99.90
57390;DHT22;43217;52.694;6.214;2022-09-09T16:58:40;18.30;99.90
57390;DHT22;43217;52.694;6.214;2022-09-09T17:01:08;18.30;99.90
57390;DHT22;43217;52.694;6.214;2022-09-09T17:03:35;18.30;99.90
57390;DHT22;43217;52.694;6.214;2022-09-09T17:06:02;18.20;99.90
57390;DHT22;43217;52.694;6.214;2022-09-09T17:08:29;18.20;99.90
57390;DHT22;43217;52.694;6.214;2022-09-09T17:10:55;18.10;99.90
57390;DHT22;43217;52.694;6.214;2022-09-09T17:13:21;18.10;99.90
57390;DHT22;43217;52.694;6.214;2022-09-09T17:15:47;18.10;99.90
57390;DHT22;43217;52.694;6.214;2022-09-09T17:18:13;18.00;99.90
57390;DHT22;43217;52.694;6.214;2022-09-09T17:20:40;18.00;99.90
57390;DHT22;43217;52.694;6.214;2022-09-09T17:23:07;17.90;99.90
57390;DHT22;43217;52.694;6.214;2022-09-09T17:25:33;17.90;99.90
57390;DHT22;43217;52.694;6.214;2022-09-09T17:27:59;17.90;99.90
57390;DHT22;43217;52.694;6.214;2022-09-09T17:30:26;17.90;99.90
57390;DHT22;43217;52.694;6.214;2022-09-09T17:32:52;17.80;99.90
57390;DHT22;43217;52.694;6.214;2022-09-09T17:35:18;17.80;99.90
57390;DHT22;43217;52.694;6.214;2022-09-09T17:37:44;17.80;99.90
57390;DHT22;43217;52.694;6.214;2022-09-09T17:40:10;17.70;99.90
57390;DHT22;43217;52.694;6.214;2022-09-09T17:42:36;17.70;99.90